Aeroporto :
LOGIN :

Iscrizione | Disclaimer

   EN    FR    IT 

 










Sommario :    VFR   VFR Marginale   IFR   IFR Intensivo   IFR Molto Intensivo
Visibilità : 
Base nubi : 
>= 8 km
>= 3000ft
5 / 8 km
1000 / 3000 ft
1500m / 5 km
500 / 1000 ft
800 / 1500m
200 / 500 ft
< 800m
< 200 ft
Simboli :   Temporali  Nebbia  Neve Forte  Precipitazioni Forti  Vento > 20 kt
SIGMETs :   Varie  Temporali  Ghiacco  Turbolenza  Onda orograficha  Ceneri Vulcaniche






- Altitudine del aeroporto : 46 ft
- Codice IATA : SNN


EINN - Shannon

ULTIMO METAR :
  • 291430Z 13017KT CAVOK 21/12 Q1020 NOSIG

METARs OBSOLETI :
  • 291400Z 12017KT CAVOK 21/12 Q1020 NOSIG
  • 291330Z 14017KT CAVOK 21/12 Q1020 NOSIG
  • 291300Z 14014KT CAVOK 21/12 Q1021 NOSIG
  • 291230Z 14013KT CAVOK 21/12 Q1021 NOSIG
  • 291200Z 13015KT CAVOK 20/11 Q1021 NOSIG

TAF TAF EINN
Valido dal 29 a 12 ore il 30 a 12 ore UTC


291100Z 2912/3012 14015KT 9999 FEW025
TEMPO 2912/2917 14017G27KT
BECMG 2922/2924 12007KT
BECMG 3008/3010 14013KT



MetMap, La meteo Aeronautica in un colpo d'occhio ! - Copyright ORBIFLY Dicembre 2007 - Disclaimer

ORBIFLY MET'MAP TEAM :

Programmazione e sviluppo : Alexandra Zaïnal
Concezione : Baudouin d'Aumeries
Aiuto per la programmazione : Marc-Olivier Méhu
Supporto tecnico e logistico : Manuel Goepfert
Aiuto per la traduzione : Arnaldo La Scala

Contatto : metmap@orbifly.com




FONTI E CREDITI :

   NOAA